Terminal Aerodrome Forecast
Issued by NWS Blacksburg, VA

Current Version | Previous Version | Graphics & Text | Print | Product List | Glossary On
Versions: 1 2 3 4 5 6 7 8 9 10 11 12
000
FTUS41 KRNK 250203 AAA
TAFBLF
TAF AMD
KBLF 250203Z 2502/2524 31003KT P6SM VCTS SCT050CB
     FM250300 VRB03KT P6SM SCT060
     FM251900 26003KT P6SM VCTS BKN050CB=

USA.gov is the U.S. government's official web portal to all federal, state and local government web resources and services.